createdAt,value
2023-01-06T00:01:28.941Z,99283.56
2023-01-06T00:06:32.527Z,99361.47
2023-01-06T00:11:35.280Z,99476.28
2023-01-06T00:16:39.403Z,99538.47
2023-01-06T00:21:42.807Z,99603.13
2023-01-06T00:26:45.502Z,99701.22
2023-01-06T00:31:49.749Z,99719.53
2023-01-06T00:36:52.461Z,99812.34
2023-01-06T00:42:07.677Z,99858.69
2023-01-06T00:47:12.616Z,99940.94
2023-01-06T00:52:15.610Z,99926.97
2023-01-06T00:57:18.305Z,99920.69
2023-01-06T01:02:22.499Z,99940.00
2023-01-06T01:07:25.658Z,99983.22
2023-01-06T01:12:28.496Z,99983.09
2023-01-06T01:17:34.667Z,100007.88
2023-01-06T01:22:37.381Z,100005.88
2023-01-06T01:27:40.126Z,100012.22
2023-01-06T01:32:44.205Z,100057.97
2023-01-06T01:37:47.009Z,100067.78
2023-01-06T01:42:49.785Z,100032.22
2023-01-06T01:47:56.560Z,99995.91
2023-01-06T01:53:03.733Z,99958.59
2023-01-06T01:58:10.025Z,99920.91
2023-01-06T02:03:15.756Z,99837.56
2023-01-06T02:08:24.541Z,99735.00
2023-01-06T02:13:27.563Z,99664.97
2023-01-06T02:18:56.397Z,99579.25
2023-01-06T02:24:43.842Z,99497.00
2023-01-06T02:30:28.938Z,99418.06
2023-01-06T02:35:43.375Z,99370.75
2023-01-06T02:40:57.012Z,99320.78
2023-01-06T02:46:09.110Z,99270.94
2023-01-06T02:51:19.221Z,99185.91
2023-01-06T02:56:23.336Z,99128.97
2023-01-06T03:01:29.995Z,99063.28
2023-01-06T03:06:35.487Z,98977.44
2023-01-06T03:11:39.726Z,98889.94
2023-01-06T03:16:44.235Z,98804.91
2023-01-06T03:21:49.929Z,98740.06
2023-01-06T03:26:56.385Z,98658.59
2023-01-06T03:32:02.987Z,98580.63
2023-01-06T03:37:12.906Z,98496.50
2023-01-06T03:42:41.156Z,98403.69
2023-01-06T03:47:53.814Z,98310.84
2023-01-06T03:53:04.068Z,98218.81
2023-01-06T03:58:09.060Z,98139.09
2023-01-06T04:03:14.067Z,98060.25
2023-01-06T04:08:20.641Z,98008.56
2023-01-06T04:13:23.423Z,97970.91
2023-01-06T04:18:26.286Z,97933.22
2023-01-06T04:23:33.035Z,97888.56
2023-01-06T04:28:37.707Z,97857.03
2023-01-06T04:33:41.196Z,97812.34
2023-01-06T04:38:47.976Z,97752.78
2023-01-06T04:43:50.743Z,97723.00
2023-01-06T04:48:53.514Z,97715.13
2023-01-06T04:53:57.634Z,97683.59
2023-01-06T04:59:00.396Z,97705.47
2023-01-06T05:04:03.270Z,97702.84
2023-01-06T05:09:07.688Z,97658.19
2023-01-06T05:14:10.461Z,97686.22
2023-01-06T05:19:13.203Z,97736.16
2023-01-06T05:24:17.291Z,97768.56
2023-01-06T05:29:20.068Z,97850.91
2023-01-06T05:34:22.811Z,97916.66
2023-01-06T05:39:26.975Z,97948.22
2023-01-06T05:44:29.695Z,98213.56
2023-01-06T05:49:32.458Z,98375.66
2023-01-06T05:54:36.571Z,98530.75
2023-01-06T05:59:39.413Z,98685.81
2023-01-06T06:04:42.168Z,98865.44
2023-01-06T06:09:46.239Z,98980.97
2023-01-06T06:14:48.982Z,99029.06
2023-01-06T06:19:51.706Z,99109.91
2023-01-06T06:24:56.903Z,99698.94
2023-01-06T06:29:59.655Z,99726.00
2023-01-06T06:35:02.396Z,99827.91
2023-01-06T06:40:08.016Z,99864.84
2023-01-06T06:45:11.707Z,99856.00
2023-01-06T06:50:14.575Z,100014.84
2023-01-06T06:55:18.933Z,100022.28
2023-01-06T07:00:21.690Z,100096.38
2023-01-06T07:05:25.568Z,100076.69
2023-01-06T07:10:29.670Z,100070.31
2023-01-06T07:15:32.470Z,100107.88
2023-01-06T07:20:36.625Z,100087.66
2023-01-06T07:25:40.736Z,100085.16
2023-01-06T07:30:43.469Z,100114.34
2023-01-06T07:35:46.478Z,100118.50
2023-01-06T07:40:50.669Z,100141.34
2023-01-06T07:45:53.457Z,100190.38
2023-01-06T07:50:56.242Z,100183.91
2023-01-06T07:56:00.308Z,100196.41
2023-01-06T08:01:06.782Z,100225.38
2023-01-06T08:06:11.095Z,100227.94
2023-01-06T08:11:15.291Z,100227.72
2023-01-06T08:16:18.087Z,100220.22
2023-01-06T08:21:20.895Z,100239.94
2023-01-06T08:26:25.058Z,100235.59
2023-01-06T08:31:27.833Z,100218.75
2023-01-06T08:36:30.601Z,100221.44
2023-01-06T08:41:34.817Z,100205.88
2023-01-06T08:46:37.568Z,100211.09
2023-01-06T08:51:40.433Z,100225.09
2023-01-06T08:56:44.858Z,100233.13
2023-01-06T09:01:47.797Z,100236.84
2023-01-06T09:06:51.745Z,100240.25
2023-01-06T09:11:55.871Z,100246.00
2023-01-06T09:16:58.685Z,100241.47
2023-01-06T09:22:01.408Z,100236.81
2023-01-06T09:27:05.559Z,100239.06
2023-01-06T09:32:08.309Z,100253.47
2023-01-06T09:37:11.094Z,100263.22
2023-01-06T09:42:25.481Z,100247.25
2023-01-06T09:47:32.592Z,100258.72
2023-01-06T09:52:39.060Z,100256.09
2023-01-06T09:57:45.762Z,100266.13
2023-01-06T10:02:48.540Z,100273.03
2023-01-06T10:07:55.520Z,100273.03
2023-01-06T10:13:05.082Z,100269.31
2023-01-06T10:18:21.816Z,100287.66
2023-01-06T10:23:38.247Z,100332.34
2023-01-06T10:28:44.277Z,100346.63
2023-01-06T10:33:51.771Z,100360.50
2023-01-06T10:38:55.924Z,100413.47
2023-01-06T10:44:00.683Z,100429.47
2023-01-06T10:49:04.032Z,100447.06
2023-01-06T10:54:09.644Z,100461.03
2023-01-06T10:59:14.159Z,100472.25
2023-01-06T11:04:17.269Z,100471.28
2023-01-06T11:09:27.341Z,100485.50
2023-01-06T11:14:32.847Z,100506.78
2023-01-06T11:19:37.935Z,100516.38
2023-01-06T11:24:52.158Z,100529.63
2023-01-06T11:29:56.399Z,100544.03
2023-01-06T11:35:01.806Z,100536.84
2023-01-06T11:40:14.892Z,100518.97
2023-01-06T11:45:34.498Z,100514.00
2023-01-06T11:50:37.337Z,100518.63
2023-01-06T11:55:40.060Z,100506.78
2023-01-06T12:00:49.248Z,100512.41
2023-01-06T12:05:57.098Z,100515.09
2023-01-06T12:11:01.858Z,100526.22
2023-01-06T12:16:08.973Z,100503.47
2023-01-06T12:21:14.065Z,100481.63
2023-01-06T12:26:19.185Z,100490.41
2023-01-06T12:31:27.057Z,100501.94
2023-01-06T12:36:34.532Z,100511.19
2023-01-06T12:41:39.523Z,100516.75
2023-01-06T12:46:49.199Z,100524.59
2023-01-06T12:51:54.011Z,100517.25
2023-01-06T12:57:06.104Z,100524.50
2023-01-06T13:02:22.846Z,100513.16
2023-01-06T13:07:40.790Z,100519.19
2023-01-06T13:12:54.787Z,100506.72
2023-01-06T13:18:09.624Z,100503.88
2023-01-06T13:23:22.853Z,100497.59
2023-01-06T13:28:32.021Z,100490.69
2023-01-06T13:33:51.881Z,100484.59
2023-01-06T13:38:59.778Z,100468.16
2023-01-06T13:44:04.526Z,100453.47
2023-01-06T13:49:09.035Z,100449.41
2023-01-06T13:54:45.065Z,100436.78
2023-01-06T13:59:51.287Z,100437.03
2023-01-06T14:04:55.376Z,100441.38
2023-01-06T14:09:58.134Z,100434.09
2023-01-06T14:15:02.916Z,100438.06
2023-01-06T14:20:22.792Z,100443.97
2023-01-06T14:25:25.942Z,100441.38
2023-01-06T14:30:31.578Z,100452.13
2023-01-06T14:35:42.186Z,100451.03
2023-01-06T14:40:51.019Z,100456.16
2023-01-06T14:45:54.185Z,100453.22
2023-01-06T14:50:59.102Z,100466.19
2023-01-06T14:56:01.953Z,100465.72
2023-01-06T15:01:05.622Z,100472.66
2023-01-06T15:06:21.439Z,100454.00
2023-01-06T15:11:27.236Z,100441.53
2023-01-06T15:16:34.897Z,100443.53
2023-01-06T15:21:41.016Z,100436.75
2023-01-06T15:26:43.779Z,100432.88
2023-01-06T15:31:47.429Z,100434.19
2023-01-06T15:36:53.484Z,100434.91
2023-01-06T15:41:57.533Z,100428.31
2023-01-06T15:47:08.902Z,100454.31
2023-01-06T15:52:24.245Z,100452.09
2023-01-06T15:57:27.296Z,100462.38
2023-01-06T16:02:31.705Z,100478.09
2023-01-06T16:07:39.824Z,100475.53
2023-01-06T16:12:42.615Z,100489.53
2023-01-06T16:17:47.268Z,100487.84
2023-01-06T16:22:52.660Z,100499.75
2023-01-06T16:27:57.743Z,100507.06
2023-01-06T16:33:01.186Z,100504.25
2023-01-06T16:38:06.676Z,100508.47
2023-01-06T16:43:10.441Z,100514.47
2023-01-06T16:48:15.130Z,100532.56
2023-01-06T16:53:20.824Z,100552.53
2023-01-06T16:58:25.322Z,100564.78
2023-01-06T17:03:30.817Z,100574.81
2023-01-06T17:08:37.752Z,100597.41
2023-01-06T17:13:45.751Z,100618.28
2023-01-06T17:18:53.344Z,100647.19
2023-01-06T17:23:59.643Z,100669.19
2023-01-06T17:29:02.646Z,100678.81
2023-01-06T17:34:12.041Z,100687.81
2023-01-06T17:39:18.958Z,100656.72
2023-01-06T17:44:30.443Z,100674.38
2023-01-06T17:49:36.231Z,100700.97
2023-01-06T17:54:57.691Z,100741.72
2023-01-06T18:00:00.422Z,100767.84
2023-01-06T18:05:36.146Z,100801.34
2023-01-06T18:10:43.433Z,100792.41
2023-01-06T18:15:47.497Z,100818.03
2023-01-06T18:20:53.900Z,100831.59
2023-01-06T18:26:01.806Z,100870.53
2023-01-06T18:31:04.942Z,100877.84
2023-01-06T18:36:09.251Z,100904.38
2023-01-06T18:41:14.621Z,100917.53
2023-01-06T18:46:18.794Z,100921.81
2023-01-06T18:51:23.678Z,100913.22
2023-01-06T18:56:27.783Z,100920.47
2023-01-06T19:01:33.477Z,100933.84
2023-01-06T19:06:40.654Z,100952.38
2023-01-06T19:11:44.894Z,100949.09
2023-01-06T19:16:53.505Z,100939.84
2023-01-06T19:22:02.955Z,100840.94
2023-01-06T19:27:29.447Z,100814.50
2023-01-06T19:32:36.728Z,100810.72
2023-01-06T19:37:39.495Z,100757.88
2023-01-06T19:42:43.650Z,100741.88
2023-01-06T19:47:46.522Z,100726.84
2023-01-06T19:52:51.061Z,100709.22
2023-01-06T19:57:56.802Z,100696.56
2023-01-06T20:03:01.739Z,100686.19
2023-01-06T20:08:04.842Z,100548.50
2023-01-06T20:13:08.914Z,100549.13
2023-01-06T20:18:11.642Z,100524.66
2023-01-06T20:23:14.360Z,100517.75
2023-01-06T20:28:18.475Z,100500.31
2023-01-06T20:33:21.269Z,100510.16
2023-01-06T20:38:24.009Z,100514.59
2023-01-06T20:43:28.075Z,100525.28
2023-01-06T20:48:30.946Z,100527.06
2023-01-06T20:53:33.709Z,100533.38
2023-01-06T20:58:37.813Z,100416.84
2023-01-06T21:03:40.598Z,100412.44
2023-01-06T21:08:43.359Z,100412.63
2023-01-06T21:13:47.465Z,100218.94
2023-01-06T21:18:51.325Z,100210.38
2023-01-06T21:23:54.099Z,100190.94
2023-01-06T21:28:58.210Z,100198.34
2023-01-06T21:34:00.943Z,100194.97
2023-01-06T21:39:05.046Z,100193.22
2023-01-06T21:44:09.175Z,100183.34
2023-01-06T21:49:11.892Z,100168.50
2023-01-06T21:54:14.623Z,100180.03
2023-01-06T21:59:18.777Z,100199.03
2023-01-06T22:04:21.533Z,99239.09
2023-01-06T22:09:24.668Z,99226.63
2023-01-06T22:14:28.796Z,99209.03
2023-01-06T22:19:31.912Z,99223.09
2023-01-06T22:24:35.506Z,99180.00
2023-01-06T22:29:39.557Z,98972.69
2023-01-06T22:34:42.303Z,98511.72
2023-01-06T22:39:46.592Z,98555.50
2023-01-06T22:44:50.710Z,98526.69
2023-01-06T22:49:53.459Z,98511.16
2023-01-06T22:54:56.226Z,98491.16
2023-01-06T23:00:00.352Z,98504.16
2023-01-06T23:05:03.187Z,98597.78
2023-01-06T23:10:06.908Z,98653.94
2023-01-06T23:15:12.133Z,98725.63
2023-01-06T23:20:14.914Z,98769.56
2023-01-06T23:25:17.775Z,98836.91
2023-01-06T23:30:21.841Z,98838.56
2023-01-06T23:35:24.594Z,98868.72
2023-01-06T23:40:27.377Z,98880.22
2023-01-06T23:45:31.831Z,98923.16
2023-01-06T23:50:34.575Z,98928.16
2023-01-06T23:55:37.303Z,98920.28
